Aviation Digital Data Service (ADDS)

Output produced by METARs form (0431 UTC 24 January 2019)
found at http://www.aviationweather.gov/metar/data/
 
Forecast for: NLWF (FUTUNA ISL/MAOPO, FJ)
Text: TAF NLWF 232300Z 2400/2424 30010KT 9999 SCT020 BKN060
Forecast period: 0000 UTC 24 January 2019 to 0000 UTC 25 January 2019
Forecast type: FROM: standard forecast or significant change
Winds: from the WNW (300 degrees) at 12 MPH (10 knots; 5.1 m/s)
Visibility: 6 or more miles 10+ km)
Ceiling: 6000 feet AGL
Clouds: scattered clouds at 2000 feet AGL
broken clouds at 6000 feet AGL
Weather: no significant weather forecast for this period
Text: TEMPO 2400/2418 2000 SHRA BKN010 FEW015CB SCT020TCU
Forecast period: 0000 to 1800 UTC 24 January 2019
Forecast type: TEMPORARY: The following changes expected for less than half the time period
Visibility: 1.24 miles (2.00 km)
Ceiling: 1000 feet AGL
Clouds: broken clouds at 1000 feet AGL
few clouds at 1500 feet AGL
scattered clouds at 2000 feet AGL
Weather: SHRA  (rain showers)
Text: PROB30
Forecast period: 1800 UTC 24 January 2019 to 0000 UTC 25 January 2019
Forecast type: TEMPORARY: The following changes expected for less than half the time period
Visibility: 0.93 miles (1.50 km)
Ceiling: 900 feet AGL
Clouds: broken clouds at 900 feet AGL
broken clouds at 1200 feet AGL
few clouds at 1500 feet AGL
Weather: TSRA  (rain associated with thunderstorm(s))